Main page
METAR-TAF:

METAR-TAF

Airports :

Munda Airport

Munda, New Georgia, Solomon Islands

latitude: 8-19-41S, longitude: 157-15-47E, elevation: 3 m

Current weather observation

The report was made 12 hours and 14 minutes ago, at 04:00 UTC
Wind 3 kt from the East
Temperature 30°C
Humidity 70%
Pressure 1010 hPa
Visibility 10 km or more
Few clouds at a height of 2000 ft
Scattered clouds at a height of 2800 ft

METAR: AGGM 290400Z 09003KT 9999 FEW020 SCT028 30/24 Q1010

Time: 03:14 (16:14 UTC)

Forecast

The report was made 11 hours and 3 minutes ago, at 05:11 UTC
Forecast valid from 29 at 06 UTC to 30 at 06 UTC
Wind 3 kt from variable directions
Visibility 10 km or more
Few clouds at a height of 1700 ft
Probability 40%
between IN and TE UTC
Visibility: 1011 m
Broken clouds at a height of 1600 ft
Few clouds at a height of 1700 ft, Cumulonimbus.

TAF: AGGM 290511Z 2906/3006 VRB03KT 9999 FEW017 PROB40 INTER 2906/29011 5000 TSSH BKN016 FEW017CB Q 1010 1012 1013 1011

Weather observations and forecasts of more than 4000 airports (METAR and TAF reports).

The available stations are represented by yellow and red dots on the map.

Hover mouse over dot to see the name of the station.

Then click to see weather observations and forecasts.

To change the map : click on the green buttons with a black cross to zoom in, on the green button with a dash to zoom out, or on the green arrows for adjacent maps.


METAR-TAF: